Time;durP1;ratioP1;P1;durP2;ratioP2;P2;SDS_P1;SDS_P2;PMS_P1;PMS_P2;Temp;Humidity;BMP_temperature;BMP_pressure;BME280_temperature;BME280_humidity;BME280_pressure;Samples;Min_cycle;Max_cycle;Signal;HPM_P1;HPM_P2
2022/06/10 00:00:34;;;;;;;4.43;1.25;;;18.50;81.90;;;;;;5094588;28;20374;-76
2022/06/10 00:02:59;;;;;;;7.55;1.15;;;18.50;81.90;;;;;;5094388;28;20391;-76
2022/06/10 00:05:28;;;;;;;6.03;1.20;;;18.50;82.00;;;;;;5094367;28;20016;-77
2022/06/10 00:07:54;;;;;;;3.95;0.82;;;18.50;82.10;;;;;;5094177;28;20048;-76
2022/06/10 00:10:22;;;;;;;4.38;1.20;;;18.50;82.30;;;;;;5094175;28;20506;-77
2022/06/10 00:12:49;;;;;;;3.83;0.95;;;18.60;82.50;;;;;;5094318;28;20085;-77
2022/06/10 00:15:15;;;;;;;2.60;1.05;;;18.60;82.60;;;;;;5094313;28;20021;-77
2022/06/10 00:17:42;;;;;;;7.22;2.35;;;18.60;82.80;;;;;;5094145;28;20028;-77
2022/06/10 00:20:10;;;;;;;5.50;1.30;;;18.60;83.00;;;;;;5093847;28;20433;-77
2022/06/10 00:22:36;;;;;;;6.28;1.90;;;18.50;83.20;;;;;;5093859;28;20085;-77
2022/06/10 00:25:02;;;;;;;8.38;1.30;;;18.50;83.50;;;;;;5093559;28;20020;-77
2022/06/10 00:27:28;;;;;;;3.70;1.40;;;18.30;83.80;;;;;;5093601;28;20035;-76
2022/06/10 00:29:54;;;;;;;2.90;0.95;;;18.30;84.20;;;;;;5093776;28;20024;-76
2022/06/10 00:32:19;;;;;;;6.13;1.33;;;18.30;84.30;;;;;;5093740;28;20042;-76
2022/06/10 00:34:45;;;;;;;3.72;1.17;;;18.30;84.40;;;;;;5093454;28;20350;-76
2022/06/10 00:37:11;;;;;;;4.90;1.42;;;18.30;84.40;;;;;;5093810;28;20055;-76
2022/06/10 00:39:37;;;;;;;5.65;1.15;;;18.30;84.60;;;;;;5093704;28;20024;-76
2022/06/10 00:42:05;;;;;;;5.05;0.93;;;18.20;84.80;;;;;;5094772;28;20024;-76
2022/06/10 00:44:38;;;;;;;3.08;1.10;;;18.20;84.90;;;;;;5093481;28;20036;-75
2022/06/10 00:47:32;;;;;;;6.95;1.45;;;18.20;85.00;;;;;;5093565;28;20032;-76
2022/06/10 00:50:13;;;;;;;4.75;1.25;;;18.20;85.10;;;;;;5093486;28;20024;-75
2022/06/10 00:52:45;;;;;;;2.70;1.10;;;18.20;85.20;;;;;;5093308;28;20024;-76
2022/06/10 00:55:12;;;;;;;6.40;1.58;;;18.20;86.00;;;;;;5093842;28;20016;-76
2022/06/10 00:57:42;;;;;;;4.82;1.60;;;18.20;85.50;;;;;;5093365;28;20537;-76
2022/06/10 01:00:14;;;;;;;4.47;1.50;;;18.20;85.60;;;;;;5093170;28;20043;-76
2022/06/10 01:02:40;;;;;;;10.60;2.17;;;18.10;85.70;;;;;;5093219;28;20036;-76
2022/06/10 01:05:21;;;;;;;7.72;1.50;;;18.20;85.90;;;;;;5093486;28;20099;-76
2022/06/10 01:08:19;;;;;;;4.25;0.95;;;18.20;86.00;;;;;;5093672;28;20028;-76
2022/06/10 01:10:58;;;;;;;5.50;1.20;;;18.20;86.10;;;;;;5081067;28;20083;-76
2022/06/10 01:14:13;;;;;;;4.78;1.58;;;18.20;86.20;;;;;;5093020;28;20028;-76
2022/06/10 01:16:54;;;;;;;5.78;1.10;;;18.20;86.10;;;;;;5075655;28;20562;-76
2022/06/10 01:19:58;;;;;;;5.18;1.23;;;18.10;86.10;;;;;;5093190;28;20463;-76
2022/06/10 01:23:02;;;;;;;6.13;1.15;;;18.20;86.20;;;;;;5090365;28;20105;-76
2022/06/10 01:25:39;;;;;;;;;;;18.10;86.10;;;;;;5093735;28;20013;-76
2022/06/10 01:28:20;;;;;;;3.80;1.30;;;18.10;86.10;;;;;;5093039;28;19904;-76
2022/06/10 01:31:03;;;;;;;7.90;1.58;;;18.20;86.10;;;;;;5093086;28;20020;-76
2022/06/10 01:33:43;;;;;;;5.63;1.23;;;18.10;86.30;;;;;;5093018;28;20481;-76
2022/06/10 01:36:32;;;;;;;7.05;1.40;;;18.10;86.40;;;;;;5093048;28;20081;-76
2022/06/10 01:39:35;;;;;;;7.95;1.70;;;18.00;86.70;;;;;;5093372;28;20020;-77
2022/06/10 01:42:28;;;;;;;5.67;1.30;;;17.90;87.00;;;;;;5093181;28;20061;-77
2022/06/10 01:45:02;;;;;;;4.65;1.08;;;17.80;87.20;;;;;;5092763;28;20586;-77
2022/06/10 01:48:01;;;;;;;9.32;1.55;;;17.90;87.40;;;;;;5092613;28;20035;-77
2022/06/10 01:50:46;;;;;;;8.02;1.52;;;17.90;87.60;;;;;;5093284;28;20023;-76
2022/06/10 01:53:35;;;;;;;7.32;1.40;;;17.90;87.70;;;;;;5092844;28;20107;-76
2022/06/10 01:56:31;;;;;;;5.22;1.30;;;17.80;87.90;;;;;;5081986;28;20077;-77
2022/06/10 01:59:06;;;;;;;5.13;1.15;;;17.80;88.10;;;;;;5092384;28;20024;-77
2022/06/10 02:01:37;;;;;;;5.82;1.08;;;17.80;88.10;;;;;;5093077;28;20081;-76
2022/06/10 02:04:17;;;;;;;7.07;1.63;;;17.80;88.20;;;;;;5092752;28;20077;-76
2022/06/10 02:07:01;;;;;;;4.05;1.40;;;17.80;88.20;;;;;;5096595;28;20042;-77
2022/06/10 02:09:35;;;;;;;8.32;1.65;;;17.80;88.30;;;;;;5096152;28;20536;-76
2022/06/10 02:12:08;;;;;;;4.25;1.27;;;17.80;88.40;;;;;;5096662;28;20032;-77
2022/06/10 02:14:39;;;;;;;8.32;1.58;;;17.80;88.50;;;;;;5096571;28;20027;-77
2022/06/10 02:17:07;;;;;;;5.05;1.00;;;17.80;88.50;;;;;;5096234;28;20032;-77
2022/06/10 02:19:45;;;;;;;3.90;1.55;;;17.80;88.60;;;;;;5096473;28;20039;-76
2022/06/10 02:22:15;;;;;;;4.30;1.15;;;17.90;89.30;;;;;;5096481;28;20024;-77
2022/06/10 02:24:49;;;;;;;5.45;1.40;;;17.80;88.80;;;;;;5096436;28;20024;-76
2022/06/10 02:27:20;;;;;;;6.95;1.92;;;17.80;88.90;;;;;;5095832;28;20475;-76
2022/06/10 02:30:01;;;;;;;5.00;1.50;;;17.80;89.00;;;;;;5096070;28;20468;-76
2022/06/10 02:32:27;;;;;;;4.30;0.88;;;17.80;89.10;;;;;;5095983;28;20479;-76
2022/06/10 02:34:54;;;;;;;7.28;1.50;;;17.80;89.20;;;;;;5096088;28;20040;-76
2022/06/10 02:37:25;;;;;;;7.43;1.80;;;17.80;89.20;;;;;;5095958;28;20402;-76
2022/06/10 02:39:57;;;;;;;6.65;1.50;;;17.80;89.80;;;;;;5096121;28;20031;-76
2022/06/10 02:42:52;;;;;;;6.95;1.63;;;17.80;89.30;;;;;;5095694;28;20028;-76
2022/06/10 02:45:47;;;;;;;6.40;1.45;;;17.80;89.30;;;;;;5088533;28;20109;-76
2022/06/10 02:48:21;;;;;;;4.68;1.27;;;17.90;89.50;;;;;;5095742;28;20078;-76
2022/06/10 02:50:46;;;;;;;5.10;1.65;;;17.90;89.50;;;;;;5095982;28;20028;-76
2022/06/10 02:53:13;;;;;;;6.35;1.45;;;17.90;89.50;;;;;;5095420;28;20482;-76
2022/06/10 02:55:39;;;;;;;5.68;1.58;;;17.90;89.40;;;;;;5095430;28;20032;-75
2022/06/10 03:01:16;;;;;;;9.20;1.45;;;17.90;89.60;;;;;;5095706;28;20031;-76
2022/06/10 03:04:00;;;;;;;4.93;1.65;;;17.90;89.70;;;;;;5095333;28;20471;-76
2022/06/10 03:06:45;;;;;;;7.20;1.55;;;17.90;89.70;;;;;;5095531;28;20068;-76
2022/06/10 03:09:29;;;;;;;6.70;1.38;;;17.90;89.90;;;;;;5095571;28;20016;-76
2022/06/10 03:12:25;;;;;;;6.90;1.10;;;17.90;89.90;;;;;;5094953;28;20425;-76
2022/06/10 03:15:27;;;;;;;6.88;1.40;;;17.90;89.90;;;;;;5095300;28;20099;-76
2022/06/10 03:18:01;;;;;;;6.22;1.38;;;17.80;90.00;;;;;;5095224;28;20024;-76
2022/06/10 03:20:51;;;;;;;8.35;1.40;;;17.90;90.10;;;;;;5094709;28;20021;-76
2022/06/10 03:23:29;;;;;;;10.30;1.30;;;17.80;90.10;;;;;;5095382;28;20119;-76
2022/06/10 03:26:10;;;;;;;7.63;1.40;;;17.80;90.10;;;;;;5095096;28;20111;-76
2022/06/10 03:28:50;;;;;;;7.90;1.98;;;17.80;90.10;;;;;;5094850;28;20036;-76
2022/06/10 03:31:21;;;;;;;8.32;1.45;;;17.80;90.20;;;;;;5095198;28;20040;-76
2022/06/10 03:33:53;;;;;;;5.05;1.30;;;17.80;90.20;;;;;;5094787;28;20066;-76
2022/06/10 03:36:23;;;;;;;9.67;1.40;;;17.80;90.20;;;;;;5094505;28;20049;-76
2022/06/10 03:38:50;;;;;;;6.72;1.42;;;17.80;90.20;;;;;;5094817;28;20266;-76
2022/06/10 03:41:29;;;;;;;10.73;1.73;;;17.70;90.20;;;;;;5094484;28;20369;-76
2022/06/10 03:43:57;;;;;;;6.68;1.23;;;17.70;90.30;;;;;;5094678;28;20032;-75
2022/06/10 03:46:27;;;;;;;9.88;1.80;;;17.70;90.40;;;;;;5094483;28;20372;-76
2022/06/10 03:48:54;;;;;;;6.55;1.15;;;17.70;90.50;;;;;;5094568;28;20024;-76
2022/06/10 03:51:21;;;;;;;8.50;1.48;;;17.60;90.60;;;;;;5094439;28;20016;-76
2022/06/10 03:53:47;;;;;;;6.45;1.50;;;17.60;90.80;;;;;;5094216;28;20043;-76
2022/06/10 03:56:19;;;;;;;10.95;1.70;;;17.60;90.90;;;;;;5094527;28;20024;-76
2022/06/10 03:58:44;;;;;;;9.07;1.48;;;17.50;91.30;;;;;;5094695;28;20060;-76
2022/06/10 04:01:11;;;;;;;8.20;1.45;;;17.50;91.30;;;;;;5094233;28;20372;-76
2022/06/10 04:03:36;;;;;;;8.57;1.33;;;17.40;91.50;;;;;;5094321;28;20115;-76
2022/06/10 04:06:02;;;;;;;7.18;2.30;;;17.30;91.90;;;;;;5093839;28;20124;-76
2022/06/10 04:08:28;;;;;;;10.43;1.52;;;17.20;92.10;;;;;;5094077;28;20016;-76
2022/06/10 04:10:53;;;;;;;13.85;1.90;;;17.10;92.50;;;;;;5094378;28;20074;-76
2022/06/10 04:13:20;;;;;;;12.15;1.67;;;16.90;93.40;;;;;;5094367;28;20024;-76
2022/06/10 04:15:46;;;;;;;6.80;1.23;;;16.90;94.20;;;;;;5094311;28;20024;-76
2022/06/10 04:18:12;;;;;;;8.63;1.80;;;16.80;94.60;;;;;;5094019;28;20099;-76
2022/06/10 04:20:39;;;;;;;9.68;1.45;;;16.80;95.20;;;;;;5093773;28;20447;-75
2022/06/10 04:23:05;;;;;;;7.45;1.35;;;16.80;95.40;;;;;;5093787;28;20034;-76
2022/06/10 04:25:33;;;;;;;11.32;1.60;;;16.80;95.70;;;;;;5094042;28;20102;-76
2022/06/10 04:27:59;;;;;;;7.32;1.20;;;16.80;96.40;;;;;;5093247;28;20391;-76
2022/06/10 04:30:29;;;;;;;9.10;1.67;;;16.80;96.70;;;;;;5093999;28;20016;-76
2022/06/10 04:32:56;;;;;;;7.20;1.40;;;16.80;97.00;;;;;;5093681;28;20032;-76
2022/06/10 04:35:23;;;;;;;9.85;1.73;;;16.70;97.20;;;;;;5093439;28;20031;-75
2022/06/10 04:37:49;;;;;;;8.50;1.90;;;16.80;97.30;;;;;;5093780;28;20069;-76
2022/06/10 04:40:17;;;;;;;9.68;1.60;;;16.80;97.40;;;;;;5093532;28;20028;-76
2022/06/10 04:42:47;;;;;;;11.30;2.47;;;16.80;98.00;;;;;;5093698;28;20078;-76
2022/06/10 04:45:16;;;;;;;7.63;1.80;;;16.80;97.80;;;;;;5093031;28;20040;-76
2022/06/10 04:47:41;;;;;;;9.57;1.40;;;16.80;98.00;;;;;;5093500;28;20055;-76
2022/06/10 04:50:11;;;;;;;10.85;2.13;;;16.80;98.20;;;;;;5093579;28;20257;-76
2022/06/10 04:52:37;;;;;;;6.97;1.55;;;16.80;98.50;;;;;;5093503;28;20111;-76
2022/06/10 04:55:05;;;;;;;7.50;1.73;;;16.80;98.80;;;;;;5093318;28;20115;-76
2022/06/10 04:57:31;;;;;;;11.20;1.70;;;16.80;99.20;;;;;;5093263;28;20024;-75
2022/06/10 04:59:56;;;;;;;9.57;1.60;;;16.80;99.20;;;;;;5093185;28;20028;-76
2022/06/10 05:02:22;;;;;;;9.48;2.20;;;16.80;99.50;;;;;;5093396;28;20419;-76
2022/06/10 05:04:48;;;;;;;11.00;1.90;;;16.80;99.80;;;;;;5092891;28;20081;-76
2022/06/10 05:07:14;;;;;;;10.80;1.88;;;16.80;99.90;;;;;;5092867;28;20110;-76
2022/06/10 05:09:39;;;;;;;9.13;2.03;;;16.80;99.90;;;;;;5092640;28;20020;-76
2022/06/10 05:12:05;;;;;;;10.48;1.63;;;16.80;99.90;;;;;;5092696;28;20036;-75
2022/06/10 05:14:31;;;;;;;6.57;1.70;;;16.80;99.90;;;;;;5093312;28;20126;-76
2022/06/10 05:16:57;;;;;;;7.82;1.55;;;16.80;99.90;;;;;;5093049;28;20510;-76
2022/06/10 05:19:24;;;;;;;10.93;1.40;;;16.90;99.90;;;;;;5093033;28;20103;-76
2022/06/10 05:21:50;;;;;;;6.13;1.60;;;16.90;99.90;;;;;;5093002;28;20495;-76
2022/06/10 05:24:16;;;;;;;7.13;1.80;;;17.00;99.90;;;;;;5093148;28;20028;-76
2022/06/10 05:26:41;;;;;;;8.00;2.10;;;17.10;99.90;;;;;;5093141;28;20028;-76
2022/06/10 05:29:07;;;;;;;8.52;1.77;;;17.10;99.90;;;;;;5093047;28;20383;-76
2022/06/10 05:31:33;;;;;;;7.22;1.98;;;17.00;99.90;;;;;;5092588;28;20525;-75
2022/06/10 05:36:43;;;;;;;5.55;1.67;;;17.10;99.90;;;;;;5093172;28;20074;-76
2022/06/10 05:39:09;;;;;;;7.13;1.60;;;17.20;99.90;;;;;;5094080;28;20032;-76
2022/06/10 05:44:19;;;;;;;9.38;2.53;;;17.30;99.90;;;;;;5096793;28;20074;-76
2022/06/10 05:46:45;;;;;;;8.32;2.55;;;17.30;99.90;;;;;;5096820;28;20051;-76
2022/06/10 05:49:10;;;;;;;9.13;2.10;;;17.40;99.90;;;;;;5096815;28;20387;-76
2022/06/10 05:51:36;;;;;;;12.35;2.63;;;17.30;99.90;;;;;;5096865;28;20108;-76
2022/06/10 05:54:03;;;;;;;8.65;2.13;;;17.40;99.90;;;;;;5096673;28;20398;-76
2022/06/10 05:56:29;;;;;;;8.95;2.30;;;17.40;99.90;;;;;;5096424;28;20035;-76
2022/06/10 05:58:54;;;;;;;8.98;2.28;;;17.40;99.90;;;;;;5096836;28;20468;-76
2022/06/10 06:01:20;;;;;;;11.93;2.25;;;17.40;99.90;;;;;;5096747;28;20031;-76
2022/06/10 06:03:45;;;;;;;8.43;1.90;;;17.40;99.90;;;;;;5096217;28;20048;-76
2022/06/10 06:06:12;;;;;;;9.48;2.60;;;17.50;99.90;;;;;;5096664;28;20074;-76
2022/06/10 06:08:38;;;;;;;5.10;1.70;;;17.50;99.90;;;;;;5096684;28;20036;-76
2022/06/10 06:11:03;;;;;;;6.35;1.50;;;17.60;99.90;;;;;;5096032;28;20020;-76
2022/06/10 06:13:29;;;;;;;7.72;2.10;;;17.60;99.90;;;;;;5096348;28;20039;-76
2022/06/10 06:15:55;;;;;;;7.57;1.60;;;17.70;99.90;;;;;;5096126;28;20425;-76
2022/06/10 06:18:20;;;;;;;9.73;2.03;;;17.80;99.90;;;;;;5095917;28;20024;-76
2022/06/10 06:20:46;;;;;;;10.57;2.45;;;17.80;99.90;;;;;;5096011;28;20061;-76
2022/06/10 06:23:12;;;;;;;9.32;2.00;;;17.80;99.90;;;;;;5095855;28;20028;-76
2022/06/10 06:25:38;;;;;;;9.07;1.98;;;17.80;99.90;;;;;;5095848;28;20028;-75
2022/06/10 06:28:04;;;;;;;10.43;2.33;;;17.80;99.90;;;;;;5095813;28;20527;-76
2022/06/10 06:30:32;;;;;;;8.02;1.95;;;17.90;99.90;;;;;;5095956;28;20024;-76
2022/06/10 06:32:59;;;;;;;114.45;22.05;;;17.90;99.90;;;;;;5095674;28;20069;-76
2022/06/10 06:35:25;;;;;;;20.27;4.95;;;18.00;99.90;;;;;;5096027;28;20073;-76
2022/06/10 06:37:52;;;;;;;12.27;2.78;;;18.00;99.90;;;;;;5095822;28;20023;-76
2022/06/10 06:40:17;;;;;;;11.27;1.73;;;18.00;99.90;;;;;;5096002;28;20110;-76
2022/06/10 06:42:44;;;;;;;9.82;2.03;;;18.00;99.90;;;;;;5095859;28;20058;-76
2022/06/10 06:45:11;;;;;;;15.02;2.00;;;18.10;99.90;;;;;;5095548;28;20117;-76
2022/06/10 06:47:37;;;;;;;9.63;1.95;;;18.10;99.90;;;;;;5095063;28;20373;-76
2022/06/10 06:50:04;;;;;;;10.57;1.95;;;18.10;99.90;;;;;;5095463;28;20016;-75
2022/06/10 06:52:30;;;;;;;9.98;2.03;;;18.20;99.90;;;;;;5094624;28;20065;-75
2022/06/10 06:54:55;;;;;;;13.88;1.95;;;18.10;99.90;;;;;;5095541;28;20091;-76
2022/06/10 06:57:21;;;;;;;10.80;2.88;;;18.10;99.90;;;;;;5095437;28;20492;-75
2022/06/10 06:59:47;;;;;;;11.90;2.20;;;18.20;99.90;;;;;;5095611;28;20024;-75
2022/06/10 07:02:13;;;;;;;13.65;2.03;;;18.20;99.90;;;;;;5095268;28;20042;-76
2022/06/10 07:04:38;;;;;;;8.45;1.85;;;18.20;99.90;;;;;;5095513;28;20024;-76
2022/06/10 07:07:05;;;;;;;9.20;1.95;;;18.20;99.90;;;;;;5095146;28;20070;-76
2022/06/10 07:09:30;;;;;;;8.20;1.70;;;18.30;99.90;;;;;;5095080;28;20027;-76
2022/06/10 07:11:56;;;;;;;5.78;1.60;;;18.20;99.90;;;;;;5095409;28;20352;-76
2022/06/10 07:14:22;;;;;;;6.45;1.17;;;18.20;99.90;;;;;;5095211;28;20108;-76
2022/06/10 07:16:51;;;;;;;9.95;1.80;;;18.30;99.90;;;;;;5095178;28;20039;-76
2022/06/10 07:19:21;;;;;;;10.77;2.33;;;18.30;99.90;;;;;;5095049;28;20024;-76
2022/06/10 07:21:46;;;;;;;11.07;2.40;;;18.30;99.90;;;;;;5094939;28;20516;-76
2022/06/10 07:24:12;;;;;;;10.38;2.45;;;18.30;99.90;;;;;;5094824;28;20115;-76
2022/06/10 07:26:38;;;;;;;6.20;1.73;;;18.30;99.90;;;;;;5094715;28;20039;-76
2022/06/10 07:29:04;;;;;;;8.43;1.95;;;18.30;99.90;;;;;;5095163;28;20020;-76
2022/06/10 07:31:30;;;;;;;7.25;1.67;;;18.30;99.90;;;;;;5094761;28;20020;-76
2022/06/10 07:33:57;;;;;;;9.82;1.92;;;18.30;99.90;;;;;;5094724;28;20468;-76
2022/06/10 07:36:23;;;;;;;6.57;1.42;;;18.30;99.90;;;;;;5094665;28;20074;-76
2022/06/10 07:38:48;;;;;;;8.45;2.15;;;18.40;99.90;;;;;;5094585;28;20468;-76
2022/06/10 07:43:58;;;;;;;8.43;1.30;;;18.50;99.50;;;;;;5094092;28;20047;-76
2022/06/10 07:46:24;;;;;;;9.90;1.15;;;18.50;99.50;;;;;;5094314;28;20032;-76
2022/06/10 07:48:49;;;;;;;7.20;1.20;;;18.40;99.30;;;;;;5094398;28;20020;-76
2022/06/10 07:51:17;;;;;;;5.35;1.05;;;18.50;99.40;;;;;;5094260;28;20471;-76
2022/06/10 07:53:43;;;;;;;7.97;1.25;;;18.50;99.60;;;;;;5094547;28;20035;-76
2022/06/10 07:56:13;;;;;;;8.05;1.20;;;18.50;99.20;;;;;;5093955;28;20024;-76
2022/06/10 07:58:39;;;;;;;9.05;1.17;;;18.60;99.00;;;;;;5094325;28;20028;-76
2022/06/10 08:01:04;;;;;;;8.57;1.00;;;18.60;98.90;;;;;;5094219;28;20099;-76
2022/06/10 08:03:30;;;;;;;9.32;1.35;;;18.70;99.10;;;;;;5092909;28;20032;-75
2022/06/10 08:05:58;;;;;;;10.10;1.42;;;18.80;99.20;;;;;;5093954;28;20035;-76
2022/06/10 08:08:23;;;;;;;11.25;1.73;;;19.00;99.20;;;;;;5094060;28;20086;-76
2022/06/10 08:10:49;;;;;;;12.38;1.40;;;19.10;99.00;;;;;;5094364;28;20467;-76
2022/06/10 08:13:15;;;;;;;8.55;1.20;;;19.30;98.80;;;;;;5094010;28;20464;-76
2022/06/10 08:15:43;;;;;;;6.35;1.00;;;19.50;98.40;;;;;;5093931;28;20456;-76
2022/06/10 08:18:09;;;;;;;7.97;1.10;;;19.50;97.90;;;;;;5093818;28;20185;-76
2022/06/10 08:23:25;;;;;;;8.48;0.82;;;19.60;96.10;;;;;;5093877;28;20592;-76
2022/06/10 08:25:51;;;;;;;4.28;0.60;;;19.60;96.20;;;;;;5093603;28;20115;-76
2022/06/10 08:28:17;;;;;;;7.95;0.88;;;19.70;96.60;;;;;;5093770;28;20107;-76
2022/06/10 08:30:43;;;;;;;7.28;0.90;;;19.80;96.40;;;;;;5093571;28;20051;-75
2022/06/10 08:33:09;;;;;;;4.55;0.90;;;19.90;95.90;;;;;;5093670;28;20471;-75
2022/06/10 08:35:36;;;;;;;8.65;1.17;;;19.90;95.40;;;;;;5093994;28;20023;-75
2022/06/10 08:38:04;;;;;;;6.05;0.80;;;19.80;95.00;;;;;;5093723;28;20034;-75
2022/06/10 08:40:46;;;;;;;7.43;1.00;;;19.90;95.30;;;;;;5093522;28;20537;-76
2022/06/10 08:43:38;;;;;;;4.35;1.25;;;19.90;95.50;;;;;;5093487;28;20111;-76
2022/06/10 08:46:41;;;;;;;6.35;1.15;;;20.00;95.80;;;;;;5085122;28;20054;-76
2022/06/10 08:49:28;;;;;;;11.90;1.05;;;20.20;95.30;;;;;;5093068;28;20421;-76
2022/06/10 08:52:21;;;;;;;6.63;0.93;;;20.40;95.60;;;;;;5093588;28;20429;-76
2022/06/10 08:55:02;;;;;;;7.40;0.88;;;20.50;94.90;;;;;;5093585;28;20025;-75
2022/06/10 08:57:36;;;;;;;5.18;0.55;;;20.60;94.80;;;;;;5093364;28;20027;-76
2022/06/10 09:00:06;;;;;;;8.45;0.77;;;20.70;94.40;;;;;;5093410;28;20111;-76
2022/06/10 09:02:44;;;;;;;5.10;0.68;;;20.80;93.80;;;;;;5092961;28;20107;-76
2022/06/10 09:05:26;;;;;;;7.93;0.93;;;20.80;93.60;;;;;;5093465;28;20157;-76
2022/06/10 09:08:01;;;;;;;6.85;0.82;;;20.90;93.20;;;;;;5092933;28;20035;-76
2022/06/10 09:10:53;;;;;;;5.47;1.00;;;20.90;92.90;;;;;;5092862;28;20020;-76
2022/06/10 09:13:57;;;;;;;5.85;0.50;;;21.00;92.80;;;;;;5093172;28;20031;-76
2022/06/10 09:16:35;;;;;;;6.30;1.05;;;21.10;92.30;;;;;;5094231;28;20028;-76
2022/06/10 09:19:13;;;;;;;6.13;0.90;;;21.10;93.70;;;;;;5097190;28;20077;-76
2022/06/10 09:22:08;;;;;;;6.28;0.80;;;21.10;93.00;;;;;;5097467;28;20082;-76
2022/06/10 09:24:48;;;;;;;5.85;0.90;;;21.20;92.70;;;;;;5097248;28;20024;-76
2022/06/10 09:27:34;;;;;;;4.78;0.70;;;21.20;92.20;;;;;;5097123;28;20032;-76
2022/06/10 09:30:03;;;;;;;8.27;0.80;;;21.00;91.60;;;;;;5097306;28;20039;-76
2022/06/10 09:32:47;;;;;;;10.75;0.80;;;21.00;91.80;;;;;;5097010;28;20028;-76
2022/06/10 09:35:37;;;;;;;5.22;0.82;;;21.00;91.90;;;;;;5096916;28;20105;-76
2022/06/10 09:38:24;;;;;;;5.63;0.70;;;21.10;92.00;;;;;;5097188;28;20024;-76
2022/06/10 09:41:16;;;;;;;7.13;1.15;;;21.10;91.90;;;;;;5096866;28;20129;-76
2022/06/10 09:44:04;;;;;;;7.18;0.70;;;21.20;91.60;;;;;;5096252;28;20029;-75
2022/06/10 09:46:44;;;;;;;7.50;0.95;;;21.20;92.40;;;;;;5096905;28;20036;-76
2022/06/10 09:49:21;;;;;;;5.05;0.90;;;21.30;91.40;;;;;;5096856;28;20039;-76
2022/06/10 09:52:21;;;;;;;6.28;0.77;;;21.20;90.60;;;;;;5096743;28;20023;-76
2022/06/10 09:55:15;;;;;;;9.02;0.80;;;21.20;90.90;;;;;;5096882;28;20138;-76
2022/06/10 09:57:50;;;;;;;4.15;0.70;;;21.30;91.20;;;;;;5096611;28;20533;-76
2022/06/10 10:00:36;;;;;;;7.25;0.82;;;21.40;90.90;;;;;;5096745;28;20093;-76
2022/06/10 10:03:13;;;;;;;7.28;0.73;;;21.60;90.40;;;;;;5096687;28;20032;-77
2022/06/10 10:06:06;;;;;;;5.85;1.13;;;21.60;90.20;;;;;;5096374;28;20032;-76
2022/06/10 10:09:04;;;;;;;8.13;0.98;;;21.70;90.10;;;;;;5096450;28;20024;-76
2022/06/10 10:11:51;;;;;;;6.63;1.05;;;21.80;90.10;;;;;;5061955;28;20475;-76
2022/06/10 10:14:41;;;;;;;8.45;1.10;;;21.80;90.40;;;;;;5096001;28;20495;-77
2022/06/10 10:17:34;;;;;;;4.78;1.20;;;21.70;90.40;;;;;;5095778;28;20095;-76
2022/06/10 10:20:22;;;;;;;6.97;1.17;;;21.70;90.80;;;;;;5096048;28;20020;-76
2022/06/10 10:23:03;;;;;;;5.82;1.10;;;21.70;90.60;;;;;;5095970;28;20099;-76
2022/06/10 10:25:29;;;;;;;7.85;1.67;;;21.70;90.40;;;;;;5094584;28;20483;-75
2022/06/10 10:27:56;;;;;;;6.93;0.95;;;21.70;90.30;;;;;;5095499;28;20043;-76
2022/06/10 10:30:40;;;;;;;10.98;1.30;;;21.60;90.10;;;;;;5096052;28;20024;-76
2022/06/10 10:33:11;;;;;;;10.32;1.23;;;21.50;89.60;;;;;;5095534;28;20031;-76
2022/06/10 10:35:41;;;;;;;12.63;1.38;;;21.40;90.00;;;;;;5095667;28;20028;-76
2022/06/10 10:38:12;;;;;;;6.80;1.08;;;21.40;90.20;;;;;;5095723;28;20359;-76
2022/06/10 10:40:46;;;;;;;6.65;1.02;;;21.40;90.50;;;;;;5095323;28;20028;-76
2022/06/10 10:43:32;;;;;;;10.07;1.52;;;21.40;90.90;;;;;;5095572;28;20133;-76
2022/06/10 10:46:02;;;;;;;7.90;1.20;;;21.60;91.40;;;;;;5094998;28;20047;-77
2022/06/10 10:48:33;;;;;;;6.88;1.20;;;21.70;90.50;;;;;;5095750;28;20032;-77
2022/06/10 10:51:23;;;;;;;6.25;1.30;;;21.70;90.30;;;;;;5095369;28;20024;-77
2022/06/10 10:53:54;;;;;;;7.82;1.10;;;21.90;90.70;;;;;;5095287;28;20034;-76
2022/06/10 10:56:32;;;;;;;9.45;1.30;;;22.00;90.80;;;;;;5095363;28;20020;-76
2022/06/10 10:58:59;;;;;;;9.80;1.85;;;22.10;90.90;;;;;;5095284;28;20031;-76
2022/06/10 11:01:45;;;;;;;10.57;2.03;;;22.20;90.50;;;;;;5095148;28;20027;-77
2022/06/10 11:04:11;;;;;;;7.47;1.48;;;22.20;90.20;;;;;;5095138;28;20031;-77
2022/06/10 11:06:38;;;;;;;9.38;1.33;;;22.10;89.90;;;;;;5095205;28;20055;-77
2022/06/10 11:09:15;;;;;;;8.60;1.13;;;22.00;90.10;;;;;;5095113;28;20031;-77
2022/06/10 11:11:42;;;;;;;7.55;1.30;;;21.90;90.20;;;;;;5094996;28;20413;-77
2022/06/10 11:14:22;;;;;;;10.20;1.80;;;21.90;90.40;;;;;;5095023;28;20077;-77
2022/06/10 11:17:14;;;;;;;12.68;1.70;;;21.80;90.50;;;;;;5095040;28;20052;-77
2022/06/10 11:19:42;;;;;;;7.53;1.58;;;21.60;90.40;;;;;;5094843;28;20490;-77
2022/06/10 11:22:10;;;;;;;12.93;1.83;;;21.60;90.30;;;;;;5094507;28;20545;-77
2022/06/10 11:24:49;;;;;;;11.65;1.80;;;21.50;90.50;;;;;;5095020;28;20117;-77
2022/06/10 11:27:29;;;;;;;7.55;1.42;;;21.40;90.70;;;;;;5094389;28;20115;-77
2022/06/10 11:30:01;;;;;;;8.45;1.63;;;21.40;90.80;;;;;;5094911;28;20031;-77
2022/06/10 11:32:32;;;;;;;8.80;1.88;;;21.30;91.00;;;;;;5094934;28;20089;-77
2022/06/10 11:35:20;;;;;;;13.48;2.17;;;21.30;91.20;;;;;;5094745;28;20028;-77
2022/06/10 11:37:49;;;;;;;9.43;1.70;;;21.30;91.10;;;;;;5094592;28;20031;-77
2022/06/10 11:40:22;;;;;;;11.50;1.95;;;21.20;91.30;;;;;;5094729;28;20025;-77
2022/06/10 11:42:57;;;;;;;8.40;1.67;;;21.10;91.20;;;;;;5095121;28;20024;-77
2022/06/10 11:45:29;;;;;;;11.50;1.55;;;21.10;91.40;;;;;;5094428;28;20075;-77
2022/06/10 11:48:06;;;;;;;8.15;1.88;;;21.10;91.80;;;;;;5094527;28;20055;-77
2022/06/10 11:50:49;;;;;;;9.65;1.88;;;21.10;91.80;;;;;;5094136;28;20485;-77
2022/06/10 11:53:36;;;;;;;7.88;1.63;;;21.20;92.10;;;;;;5094294;28;20360;-76
2022/06/10 12:01:47;;;;;;;7.28;1.88;;;21.40;91.90;;;;;;5094013;28;20153;-76
2022/06/10 12:04:28;;;;;;;7.47;1.45;;;21.50;91.90;;;;;;5093948;28;20024;-76
2022/06/10 12:07:00;;;;;;;11.15;1.83;;;21.80;91.50;;;;;;5093916;28;20470;-76
2022/06/10 12:09:38;;;;;;;7.47;1.83;;;22.10;90.90;;;;;;5093893;28;20352;-76
2022/06/10 12:12:20;;;;;;;9.13;1.95;;;22.30;90.30;;;;;;5094160;28;20088;-76
2022/06/10 12:14:50;;;;;;;10.70;2.30;;;22.30;90.30;;;;;;5093666;28;20074;-76
2022/06/10 12:17:31;;;;;;;11.27;1.80;;;22.30;90.60;;;;;;5093866;28;20073;-76
2022/06/10 12:20:16;;;;;;;10.57;2.38;;;22.30;90.60;;;;;;5093818;28;20027;-76
2022/06/10 12:22:42;;;;;;;7.47;1.70;;;22.30;90.20;;;;;;5062094;28;20032;-77
2022/06/10 12:25:18;;;;;;;8.07;1.50;;;22.30;90.50;;;;;;5093369;28;20121;-77
2022/06/10 12:27:55;;;;;;;9.98;1.42;;;22.30;90.70;;;;;;5093843;28;20085;-77
2022/06/10 12:30:38;;;;;;;11.70;1.70;;;22.30;91.30;;;;;;5093826;28;20099;-77
2022/06/10 12:33:23;;;;;;;5.65;1.42;;;22.30;90.70;;;;;;5093646;28;20472;-77
2022/06/10 12:35:49;;;;;;;6.63;1.42;;;22.20;90.50;;;;;;5093901;28;20162;-77
2022/06/10 12:38:25;;;;;;;9.93;2.13;;;22.10;90.50;;;;;;5093827;28;20456;-77
2022/06/10 12:41:17;;;;;;;8.38;1.85;;;22.10;90.60;;;;;;5093365;28;20031;-77
2022/06/10 12:43:53;;;;;;;5.20;1.80;;;22.20;90.70;;;;;;5092027;28;20372;-77
2022/06/10 12:46:45;;;;;;;8.77;1.60;;;22.30;90.70;;;;;;5093265;28;20032;-77
2022/06/10 12:49:19;;;;;;;11.23;2.40;;;22.30;90.40;;;;;;5085611;28;20372;-77
2022/06/10 12:52:01;;;;;;;10.40;2.00;;;22.40;90.50;;;;;;5093319;28;20371;-77
2022/06/10 12:54:40;;;;;;;6.35;1.70;;;22.40;90.60;;;;;;5093480;28;20028;-77
2022/06/10 12:57:36;;;;;;;6.15;1.27;;;22.60;90.50;;;;;;5093334;28;20031;-77
2022/06/10 13:00:20;;;;;;;9.30;2.05;;;22.70;89.80;;;;;;5093203;28;20521;-77
2022/06/10 13:03:05;;;;;;;8.02;2.13;;;22.50;89.10;;;;;;5093335;28;20383;-77
2022/06/10 13:05:31;;;;;;;11.68;1.92;;;22.50;89.30;;;;;;5092878;28;20051;-77
2022/06/10 13:07:58;;;;;;;9.45;2.10;;;22.30;89.20;;;;;;5093105;28;20055;-76
2022/06/10 13:10:30;;;;;;;6.57;1.55;;;22.30;89.90;;;;;;5093261;28;20027;-77
2022/06/10 13:13:08;;;;;;;7.63;1.63;;;22.30;90.20;;;;;;5092821;28;20027;-77
2022/06/10 13:15:34;;;;;;;12.40;2.03;;;22.20;90.40;;;;;;5092592;28;20028;-77
2022/06/10 13:18:18;;;;;;;6.85;1.67;;;22.20;90.20;;;;;;5092591;28;20505;-77
2022/06/10 13:20:47;;;;;;;6.07;1.45;;;22.10;90.20;;;;;;5092573;28;20051;-77
2022/06/10 13:23:17;;;;;;;8.90;1.80;;;22.20;90.40;;;;;;5092679;28;20128;-77
2022/06/10 13:25:49;;;;;;;9.85;1.80;;;22.50;90.80;;;;;;5092610;28;20035;-77
2022/06/10 13:28:23;;;;;;;10.40;2.23;;;22.80;90.30;;;;;;5092458;28;20020;-77
2022/06/10 13:30:51;;;;;;;8.95;1.88;;;23.00;89.30;;;;;;5093189;28;20254;-77
2022/06/10 13:33:18;;;;;;;9.18;1.65;;;23.10;88.10;;;;;;5092868;28;20169;-77
2022/06/10 13:35:43;;;;;;;7.82;1.50;;;23.20;88.30;;;;;;5093067;28;20028;-77
2022/06/10 13:38:42;;;;;;;5.55;1.33;;;23.40;88.10;;;;;;5092927;28;20498;-77